Crystal Symphony — C6MY5 — position and weather

sailwx.info

Track history (hours):
 
Tides and Currents Weather Stations Pressure Air Temp Water Temp Dewpoint Dewpoint Depression Visibility Wind Speed Wind Dir Waves Ship Positions

Crystal Symphony

Operator: Crystal Cruises

Last reported at 2019-Apr-10 11:16 UTC. Time now 2019-Apr-24 22:51 UTC.
Position S 26°52' E 153°51'.
Warning: this ship's position is 14 days out of date.

Length 238 m; draft 8 m.

Type: Ship. MMSI: 309168000.

Date/timePositionNaut miles runAvg speedWind from/ knotsBaromVisibWave heightAir tempDewpointWater temp
2019-Apr-10 11:16S 26°52' E 153°51'614.3
2019-Apr-10 10:52S 26°57' E 153°51'1014.6
2019-Apr-10 10:10S 27°08' E 153°52'2714.6
2019-Apr-10 08:21S 27°34' E 153°54'514.3
2019-Apr-10 08:01S 27°39' E 153°54'714.5
2019-Apr-10 07:31S 27°46' E 153°55'714.5
2019-Apr-10 07:01S 27°53' E 153°56'714.4
2019-Apr-10 06:30S 28°01' E 153°56'714.4
2019-Apr-10 06:00S 28°08' E 153°57'27315.1
2019-Apr-09 11:54S 32°34' E 152°47'513.8
2019-Apr-09 11:30S 32°39' E 152°44'713.8
2019-Apr-09 11:01S 32°43' E 152°38'815.6
2019-Apr-09 10:30S 32°49' E 152°31'816.2
2019-Apr-09 10:01S 32°54' E 152°24'815.8
2019-Apr-09 09:30S 32°57' E 152°15'714.6
2019-Apr-09 09:00S 32°57' E 152°06'713.5
2019-Apr-09 08:30S 32°57' E 151°58'612.6
2019-Apr-09 08:01S 32°57' E 151°51'3 6.8
2019-Apr-09 07:31S 32°55' E 151°47'1 1.4
2019-Apr-09 06:58S 32°55' E 151°47'0 0.0
2019-Apr-09 06:28S 32°55' E 151°47'0 0.0
2019-Apr-09 06:00S 32°55' E 151°47'0 0.0
2019-Apr-09 05:30S 32°55' E 151°47'0 0.0
2019-Apr-09 05:00S 32°55' E 151°47'0 0.0
2019-Apr-09 04:30S 32°55' E 151°47'0 0.0
2019-Apr-09 03:59S 32°55' E 151°47'0 0.0
2019-Apr-09 03:29S 32°55' E 151°47'0 0.0
2019-Apr-09 02:59S 32°55' E 151°47'0 0.0
2019-Apr-09 02:29S 32°55' E 151°47'0 0.0
2019-Apr-09 01:59S 32°55' E 151°47'0 0.0
2019-Apr-09 01:28S 32°55' E 151°47'0 0.0
2019-Apr-09 00:58S 32°55' E 151°47'0 0.0
2019-Apr-09 00:28S 32°55' E 151°47'0 0.0
2019-Apr-08 23:58S 32°55' E 151°47'0 0.0
2019-Apr-08 23:28S 32°55' E 151°47'0 0.0
2019-Apr-08 23:00S 32°55' E 151°47'0 0.0
2019-Apr-08 22:30S 32°55' E 151°47'0 0.0
2019-Apr-08 22:00S 32°55' E 151°47'0 0.0
2019-Apr-08 21:30S 32°55' E 151°47'1 1.7
2019-Apr-08 21:00S 32°55' E 151°48'4 7.5
2019-Apr-08 20:30S 32°57' E 151°51'5 9.9
2019-Apr-08 20:00S 33°01' E 151°54'510.3
2019-Apr-08 19:30S 33°06' E 151°56'510.3
2019-Apr-08 19:00S 33°11' E 151°55'611.2
2019-Apr-08 18:30S 33°17' E 151°53'611.1
2019-Apr-08 18:00S 33°22' E 151°50'510.2
2019-Apr-08 17:30S 33°26' E 151°48'3 6.9
2019-Apr-08 17:00S 33°29' E 151°46'3 6.6
2019-Apr-08 16:30S 33°32' E 151°44'3 6.4
2019-Apr-08 16:00S 33°35' E 151°42'3 6.4
2019-Apr-08 15:30S 33°38' E 151°40'3 6.3
2019-Apr-08 15:00S 33°40' E 151°38'3 6.3
2019-Apr-08 14:30S 33°43' E 151°36'510.0
2019-Apr-08 14:01S 33°46' E 151°32'816.5
2019-Apr-08 13:31S 33°50' E 151°23'510.8
2019-Apr-08 13:00S 33°50' E 151°16'4 7.1
2019-Apr-08 12:30S 33°51' E 151°12'1 0.2
2019-Apr-08 09:02S 33°52' E 151°11'0 0.0
2019-Apr-08 08:56S 33°52' E 151°11'0 0.0
2019-Apr-08 08:25S 33°52' E 151°11'0 0.0
2019-Apr-08 07:55S 33°52' E 151°11'0 0.0
2019-Apr-08 07:25S 33°52' E 151°11'0 0.0
2019-Apr-08 06:55S 33°52' E 151°11'0 0.0
2019-Apr-08 06:31S 33°52' E 151°11'0 0.0
2019-Apr-08 06:00S 33°52' E 151°11'0 0.0
2019-Apr-08 05:30S 33°52' E 151°11'0 0.0
2019-Apr-08 05:00S 33°52' E 151°11'0 0.0
2019-Apr-08 04:30S 33°52' E 151°11'0 0.0
2019-Apr-08 03:59S 33°52' E 151°11'0 0.0
2019-Apr-08 03:29S 33°52' E 151°11'0 0.0
2019-Apr-08 02:59S 33°52' E 151°11'0 0.0
2019-Apr-08 02:29S 33°52' E 151°11'0 0.0
2019-Apr-08 01:59S 33°52' E 151°11'0 0.0
2019-Apr-08 01:28S 33°52' E 151°11'0 0.0
2019-Apr-08 00:58S 33°52' E 151°11'0 0.0
2019-Apr-08 00:28S 33°52' E 151°11'0 0.0
2019-Apr-07 23:58S 33°52' E 151°11'0 0.0
2019-Apr-07 23:27S 33°52' E 151°11'0 0.0
2019-Apr-07 23:00S 33°52' E 151°11'0 0.0
2019-Apr-07 22:27S 33°52' E 151°11'0 0.0
2019-Apr-07 21:57S 33°52' E 151°11'0 0.0
2019-Apr-07 21:30S 33°52' E 151°11'0 0.0
2019-Apr-07 20:59S 33°52' E 151°11'0 0.0
2019-Apr-07 20:29S 33°52' E 151°11'0 0.0
2019-Apr-07 19:59S 33°52' E 151°11'0 0.0
2019-Apr-07 19:29S 33°52' E 151°11'0 0.0
2019-Apr-07 18:56S 33°52' E 151°11'0 0.0
2019-Apr-07 18:28S 33°52' E 151°11'0 0.0
2019-Apr-07 17:58S 33°52' E 151°11'0 0.0
2019-Apr-07 17:28S 33°52' E 151°11'0 0.0
2019-Apr-07 16:58S 33°52' E 151°11'0 0.0
2019-Apr-07 16:31S 33°52' E 151°11'0 0.0
2019-Apr-07 16:00S 33°52' E 151°11'0 0.0
2019-Apr-07 15:30S 33°52' E 151°11'0 0.0
2019-Apr-07 15:00S 33°52' E 151°11'0 0.0
2019-Apr-07 14:30S 33°52' E 151°11'0 0.0
2019-Apr-07 13:59S 33°52' E 151°11'0 0.4
2019-Apr-07 13:29S 33°52' E 151°11'0 0.0
2019-Apr-07 12:59S 33°52' E 151°11'0 0.0
2019-Apr-07 12:29S 33°52' E 151°11'0 0.0
2019-Apr-07 11:58S 33°52' E 151°11'0 0.0
2019-Apr-07 11:28S 33°52' E 151°11'0 0.0
2019-Apr-07 10:58S 33°52' E 151°11'0 0.0
2019-Apr-07 10:28S 33°52' E 151°11'0 0.0
2019-Apr-07 09:58S 33°52' E 151°11'0 0.0
2019-Apr-07 09:30S 33°52' E 151°11'0 0.0
2019-Apr-07 09:00S 33°52' E 151°11'3 0.3
2019-Apr-06 21:03S 33°51' E 151°15'0 8.1
2019-Apr-06 21:00S 33°51' E 151°15'5 9.7
2019-Apr-06 20:30S 33°51' E 151°21'510.0
2019-Apr-06 20:00S 33°55' E 151°23'715.0
2019-Apr-06 19:30S 34°03' E 151°23'816.0
2019-Apr-06 19:00S 34°11' E 151°23'56916.5
2019-Apr-05 08:32S 43°17' E 147°57'217.5
2019-Apr-05 08:24S 43°17' E 147°54'816.7
2019-Apr-05 07:53S 43°15' E 147°43'21 0.7
2019-Apr-04 02:09S 43°00' E 147°22'816.5
2019-Apr-04 01:41S 43°06' E 147°28'720.0
2019-Apr-04 01:20S 43°11' E 147°35'720.2
2019-Apr-04 01:00S 43°15' E 147°43'  
2019-Apr-01 05:53S 40°18' E 172°60'718.9
2019-Apr-01 05:30S 40°19' E 173°09'1019.0
2019-Apr-01 05:00S 40°20' E 173°21'1019.4
2019-Apr-01 04:30S 40°23' E 173°34'1019.7
2019-Apr-01 04:00S 40°24' E 173°46'1020.0
2019-Apr-01 03:30S 40°26' E 173°59'1019.9
2019-Apr-01 03:00S 40°29' E 174°12'1020.5
2019-Apr-01 02:30S 40°38' E 174°18'1020.3
2019-Apr-01 02:00S 40°47' E 174°24'12738.3
2019-Apr-01 02:00S 40°36' E 174°18'2244.5 340 / 211009.310.8 17.3 18.3
2019-Apr-01 01:31S 40°56' E 174°29'1019.0
2019-Apr-01 01:00S 41°05' E 174°32'918.5
2019-Apr-01 00:31S 41°14' E 174°29'816.8
2019-Apr-01 00:01S 41°22' E 174°29'917.1
2019-Mar-31 23:30S 41°31' E 174°31'917.9
2019-Mar-31 23:00S 41°40' E 174°34'917.8
2019-Mar-31 22:30S 41°48' E 174°34'918.4
2019-Mar-31 22:00S 41°57' E 174°30'918.5
2019-Mar-31 21:30S 42°05' E 174°25'917.7
2019-Mar-31 21:00S 42°14' E 174°20'15317.0
2019-Mar-31 12:00S 44°24' E 172°30'   030 / 391001.0 18.0 16.4
Track history (hours):
 
Tides and Currents Weather Stations Pressure Air Temp Water Temp Dewpoint Dewpoint Depression Visibility Wind Speed Wind Dir Waves Ship Positions

Crystal Symphony

Operator: Crystal Cruises

Last reported at 2019-Apr-10 11:16 UTC. Time now 2019-Apr-24 22:51 UTC.
Position S 26°52' E 153°51'.
Warning: this ship's position is 14 days out of date.

Length 238 m; draft 8 m.

Type: Ship. MMSI: 309168000.

Date/timePositionNaut miles runAvg speedWind from/ knotsBaromVisibWave heightAir tempDewpointWater temp
2019-Apr-10 11:16S 26°52' E 153°51'614.3
2019-Apr-10 10:52S 26°57' E 153°51'1014.6
2019-Apr-10 10:10S 27°08' E 153°52'2714.6
2019-Apr-10 08:21S 27°34' E 153°54'514.3
2019-Apr-10 08:01S 27°39' E 153°54'714.5
2019-Apr-10 07:31S 27°46' E 153°55'714.5
2019-Apr-10 07:01S 27°53' E 153°56'714.4
2019-Apr-10 06:30S 28°01' E 153°56'714.4
2019-Apr-10 06:00S 28°08' E 153°57'27315.1
2019-Apr-09 11:54S 32°34' E 152°47'513.8
2019-Apr-09 11:30S 32°39' E 152°44'713.8
2019-Apr-09 11:01S 32°43' E 152°38'815.6
2019-Apr-09 10:30S 32°49' E 152°31'816.2
2019-Apr-09 10:01S 32°54' E 152°24'815.8
2019-Apr-09 09:30S 32°57' E 152°15'714.6
2019-Apr-09 09:00S 32°57' E 152°06'713.5
2019-Apr-09 08:30S 32°57' E 151°58'612.6
2019-Apr-09 08:01S 32°57' E 151°51'3 6.8
2019-Apr-09 07:31S 32°55' E 151°47'1 1.4
2019-Apr-09 06:58S 32°55' E 151°47'0 0.0
2019-Apr-09 06:28S 32°55' E 151°47'0 0.0
2019-Apr-09 06:00S 32°55' E 151°47'0 0.0
2019-Apr-09 05:30S 32°55' E 151°47'0 0.0
2019-Apr-09 05:00S 32°55' E 151°47'0 0.0
2019-Apr-09 04:30S 32°55' E 151°47'0 0.0
2019-Apr-09 03:59S 32°55' E 151°47'0 0.0
2019-Apr-09 03:29S 32°55' E 151°47'0 0.0
2019-Apr-09 02:59S 32°55' E 151°47'0 0.0
2019-Apr-09 02:29S 32°55' E 151°47'0 0.0
2019-Apr-09 01:59S 32°55' E 151°47'0 0.0
2019-Apr-09 01:28S 32°55' E 151°47'0 0.0
2019-Apr-09 00:58S 32°55' E 151°47'0 0.0
2019-Apr-09 00:28S 32°55' E 151°47'0 0.0
2019-Apr-08 23:58S 32°55' E 151°47'0 0.0
2019-Apr-08 23:28S 32°55' E 151°47'0 0.0
2019-Apr-08 23:00S 32°55' E 151°47'0 0.0
2019-Apr-08 22:30S 32°55' E 151°47'0 0.0
2019-Apr-08 22:00S 32°55' E 151°47'0 0.0
2019-Apr-08 21:30S 32°55' E 151°47'1 1.7
2019-Apr-08 21:00S 32°55' E 151°48'4 7.5
2019-Apr-08 20:30S 32°57' E 151°51'5 9.9
2019-Apr-08 20:00S 33°01' E 151°54'510.3
2019-Apr-08 19:30S 33°06' E 151°56'510.3
2019-Apr-08 19:00S 33°11' E 151°55'611.2
2019-Apr-08 18:30S 33°17' E 151°53'611.1
2019-Apr-08 18:00S 33°22' E 151°50'510.2
2019-Apr-08 17:30S 33°26' E 151°48'3 6.9
2019-Apr-08 17:00S 33°29' E 151°46'3 6.6
2019-Apr-08 16:30S 33°32' E 151°44'3 6.4
2019-Apr-08 16:00S 33°35' E 151°42'3 6.4
2019-Apr-08 15:30S 33°38' E 151°40'3 6.3
2019-Apr-08 15:00S 33°40' E 151°38'3 6.3
2019-Apr-08 14:30S 33°43' E 151°36'510.0
2019-Apr-08 14:01S 33°46' E 151°32'816.5
2019-Apr-08 13:31S 33°50' E 151°23'510.8
2019-Apr-08 13:00S 33°50' E 151°16'4 7.1
2019-Apr-08 12:30S 33°51' E 151°12'1 0.2
2019-Apr-08 09:02S 33°52' E 151°11'0 0.0
2019-Apr-08 08:56S 33°52' E 151°11'0 0.0
2019-Apr-08 08:25S 33°52' E 151°11'0 0.0
2019-Apr-08 07:55S 33°52' E 151°11'0 0.0
2019-Apr-08 07:25S 33°52' E 151°11'0 0.0
2019-Apr-08 06:55S 33°52' E 151°11'0 0.0
2019-Apr-08 06:31S 33°52' E 151°11'0 0.0
2019-Apr-08 06:00S 33°52' E 151°11'0 0.0
2019-Apr-08 05:30S 33°52' E 151°11'0 0.0
2019-Apr-08 05:00S 33°52' E 151°11'0 0.0
2019-Apr-08 04:30S 33°52' E 151°11'0 0.0
2019-Apr-08 03:59S 33°52' E 151°11'0 0.0
2019-Apr-08 03:29S 33°52' E 151°11'0 0.0
2019-Apr-08 02:59S 33°52' E 151°11'0 0.0
2019-Apr-08 02:29S 33°52' E 151°11'0 0.0
2019-Apr-08 01:59S 33°52' E 151°11'0 0.0
2019-Apr-08 01:28S 33°52' E 151°11'0 0.0
2019-Apr-08 00:58S 33°52' E 151°11'0 0.0
2019-Apr-08 00:28S 33°52' E 151°11'0 0.0
2019-Apr-07 23:58S 33°52' E 151°11'0 0.0
2019-Apr-07 23:27S 33°52' E 151°11'0 0.0
2019-Apr-07 23:00S 33°52' E 151°11'0 0.0
2019-Apr-07 22:27S 33°52' E 151°11'0 0.0
2019-Apr-07 21:57S 33°52' E 151°11'0 0.0
2019-Apr-07 21:30S 33°52' E 151°11'0 0.0
2019-Apr-07 20:59S 33°52' E 151°11'0 0.0
2019-Apr-07 20:29S 33°52' E 151°11'0 0.0
2019-Apr-07 19:59S 33°52' E 151°11'0 0.0
2019-Apr-07 19:29S 33°52' E 151°11'0 0.0
2019-Apr-07 18:56S 33°52' E 151°11'0 0.0
2019-Apr-07 18:28S 33°52' E 151°11'0 0.0
2019-Apr-07 17:58S 33°52' E 151°11'0 0.0
2019-Apr-07 17:28S 33°52' E 151°11'0 0.0
2019-Apr-07 16:58S 33°52' E 151°11'0 0.0
2019-Apr-07 16:31S 33°52' E 151°11'0 0.0
2019-Apr-07 16:00S 33°52' E 151°11'0 0.0
2019-Apr-07 15:30S 33°52' E 151°11'0 0.0
2019-Apr-07 15:00S 33°52' E 151°11'0 0.0
2019-Apr-07 14:30S 33°52' E 151°11'0 0.0
2019-Apr-07 13:59S 33°52' E 151°11'0 0.4
2019-Apr-07 13:29S 33°52' E 151°11'0 0.0
2019-Apr-07 12:59S 33°52' E 151°11'0 0.0
2019-Apr-07 12:29S 33°52' E 151°11'0 0.0
2019-Apr-07 11:58S 33°52' E 151°11'0 0.0
2019-Apr-07 11:28S 33°52' E 151°11'0 0.0
2019-Apr-07 10:58S 33°52' E 151°11'0 0.0
2019-Apr-07 10:28S 33°52' E 151°11'0 0.0
2019-Apr-07 09:58S 33°52' E 151°11'0 0.0
2019-Apr-07 09:30S 33°52' E 151°11'0 0.0
2019-Apr-07 09:00S 33°52' E 151°11'3 0.3
2019-Apr-06 21:03S 33°51' E 151°15'0 8.1
2019-Apr-06 21:00S 33°51' E 151°15'5 9.7
2019-Apr-06 20:30S 33°51' E 151°21'510.0
2019-Apr-06 20:00S 33°55' E 151°23'715.0
2019-Apr-06 19:30S 34°03' E 151°23'816.0
2019-Apr-06 19:00S 34°11' E 151°23'56916.5
2019-Apr-05 08:32S 43°17' E 147°57'217.5
2019-Apr-05 08:24S 43°17' E 147°54'816.7
2019-Apr-05 07:53S 43°15' E 147°43'21 0.7
2019-Apr-04 02:09S 43°00' E 147°22'816.5
2019-Apr-04 01:41S 43°06' E 147°28'720.0
2019-Apr-04 01:20S 43°11' E 147°35'720.2
2019-Apr-04 01:00S 43°15' E 147°43'  
2019-Apr-01 05:53S 40°18' E 172°60'718.9
2019-Apr-01 05:30S 40°19' E 173°09'1019.0
2019-Apr-01 05:00S 40°20' E 173°21'1019.4
2019-Apr-01 04:30S 40°23' E 173°34'1019.7
2019-Apr-01 04:00S 40°24' E 173°46'1020.0
2019-Apr-01 03:30S 40°26' E 173°59'1019.9
2019-Apr-01 03:00S 40°29' E 174°12'1020.5
2019-Apr-01 02:30S 40°38' E 174°18'1020.3
2019-Apr-01 02:00S 40°47' E 174°24'12738.3
2019-Apr-01 02:00S 40°36' E 174°18'2244.5 340 / 211009.310.8 17.3 18.3
2019-Apr-01 01:31S 40°56' E 174°29'1019.0
2019-Apr-01 01:00S 41°05' E 174°32'918.5
2019-Apr-01 00:31S 41°14' E 174°29'816.8
2019-Apr-01 00:01S 41°22' E 174°29'917.1
2019-Mar-31 23:30S 41°31' E 174°31'917.9
2019-Mar-31 23:00S 41°40' E 174°34'917.8
2019-Mar-31 22:30S 41°48' E 174°34'918.4
2019-Mar-31 22:00S 41°57' E 174°30'918.5
2019-Mar-31 21:30S 42°05' E 174°25'917.7
2019-Mar-31 21:00S 42°14' E 174°20'15317.0
2019-Mar-31 12:00S 44°24' E 172°30'   030 / 391001.0 18.0 16.4

Dump ship's entire track history